Time;durP1;ratioP1;P1;durP2;ratioP2;P2;SDS_P1;SDS_P2;PMS_P1;PMS_P2;Temp;Humidity;BMP_temperature;BMP_pressure;BME280_temperature;BME280_humidity;BME280_pressure;Samples;Min_cycle;Max_cycle;Signal;HPM_P1;HPM_P2
2022/04/17 00:00:15;;;;;;;0.20;0.20;;;5.50;92.30;;;;;;4986580;28;20046;-71
2022/04/17 00:02:41;;;;;;;0.40;0.40;;;5.50;92.70;;;;;;5006305;28;20061;-71
2022/04/17 00:05:07;;;;;;;0.35;0.35;;;5.50;92.70;;;;;;5004705;28;20045;-71
2022/04/17 00:07:34;;;;;;;4.00;1.05;;;5.50;92.80;;;;;;4993721;28;20130;-71
2022/04/17 00:10:00;;;;;;;0.30;0.30;;;5.50;93.00;;;;;;4983713;28;20117;-71
2022/04/17 00:12:27;;;;;;;0.65;0.65;;;5.40;93.00;;;;;;4985227;28;20117;-70
2022/04/17 00:14:54;;;;;;;0.88;0.60;;;5.40;93.00;;;;;;4982912;28;20077;-70
2022/04/17 00:17:20;;;;;;;0.38;0.38;;;5.40;93.10;;;;;;4998817;28;20077;-71
2022/04/17 00:19:46;;;;;;;0.30;0.30;;;5.40;93.20;;;;;;4997541;28;20074;-71
2022/04/17 00:22:15;;;;;;;0.70;0.70;;;5.40;93.00;;;;;;4991239;28;20057;-71
2022/04/17 00:24:42;;;;;;;0.55;0.55;;;5.40;93.30;;;;;;4994138;28;20581;-71
2022/04/17 00:27:08;;;;;;;0.40;0.40;;;5.40;93.60;;;;;;5006178;28;20095;-71
2022/04/17 00:29:34;;;;;;;0.40;0.40;;;5.40;93.60;;;;;;5003965;28;20045;-71
2022/04/17 00:31:59;;;;;;;0.30;0.30;;;5.40;93.60;;;;;;5006540;28;20448;-71
2022/04/17 00:34:26;;;;;;;0.30;0.30;;;5.40;93.70;;;;;;4998031;28;20369;-71
2022/04/17 00:36:52;;;;;;;0.30;0.30;;;5.30;93.80;;;;;;4990287;28;20038;-71
2022/04/17 00:39:18;;;;;;;0.30;0.30;;;5.30;93.80;;;;;;5012806;28;20034;-71
2022/04/17 00:41:46;;;;;;;0.30;0.30;;;5.20;93.90;;;;;;4994535;28;20043;-71
2022/04/17 00:44:13;;;;;;;0.65;0.65;;;5.20;94.00;;;;;;4999660;28;20034;-71
2022/04/17 00:46:40;;;;;;;0.73;0.73;;;5.10;94.10;;;;;;5006061;28;20049;-71
2022/04/17 00:49:09;;;;;;;0.57;0.57;;;5.00;94.40;;;;;;4989412;28;20057;-71
2022/04/17 00:51:36;;;;;;;0.30;0.30;;;4.90;94.30;;;;;;5004403;28;20048;-71
2022/04/17 00:54:07;;;;;;;0.30;0.30;;;4.90;94.30;;;;;;4997556;28;20206;-71
2022/04/17 00:56:34;;;;;;;0.70;0.70;;;4.90;94.30;;;;;;5009150;28;20048;-71
2022/04/17 00:59:02;;;;;;;2.25;2.05;;;4.90;94.00;;;;;;4987543;28;20099;-71
2022/04/17 01:01:38;;;;;;;0.30;0.30;;;4.90;94.20;;;;;;4998784;28;20456;-71
2022/04/17 01:04:05;;;;;;;1.65;0.85;;;4.90;94.20;;;;;;5006411;28;20111;-71
2022/04/17 01:06:32;;;;;;;0.73;0.73;;;4.90;94.00;;;;;;4990276;28;20397;-71
2022/04/17 01:08:58;;;;;;;1.92;1.67;;;4.90;94.50;;;;;;4996214;28;20096;-70
2022/04/17 01:11:24;;;;;;;0.60;0.60;;;4.90;94.20;;;;;;5006003;28;20041;-71
2022/04/17 01:13:52;;;;;;;2.58;1.75;;;4.90;94.40;;;;;;4990857;28;20042;-71
2022/04/17 01:16:18;;;;;;;0.60;0.60;;;4.90;94.30;;;;;;4991197;28;20040;-71
2022/04/17 01:19:11;;;;;;;1.17;1.08;;;5.00;95.00;;;;;;4989282;28;20113;-71
2022/04/17 01:21:40;;;;;;;0.40;0.40;;;4.90;94.90;;;;;;5011494;28;20041;-71
2022/04/17 01:26:56;;;;;;;0.52;0.52;;;4.90;95.90;;;;;;5002970;28;20208;-72
2022/04/17 01:29:31;;;;;;;0.60;0.60;;;4.80;95.70;;;;;;5009527;28;20049;-71
2022/04/17 01:32:00;;;;;;;0.30;0.30;;;4.70;95.50;;;;;;5002978;28;20378;-71
2022/04/17 01:34:26;;;;;;;0.40;0.40;;;4.70;95.90;;;;;;5008650;28;20034;-71
2022/04/17 01:36:52;;;;;;;0.55;0.55;;;4.60;95.80;;;;;;4988472;28;20394;-71
2022/04/17 01:39:19;;;;;;;0.30;0.30;;;4.70;95.80;;;;;;4988824;28;20124;-71
2022/04/17 01:41:46;;;;;;;0.75;0.75;;;4.60;96.00;;;;;;5010119;28;20481;-71
2022/04/17 01:44:13;;;;;;;0.40;0.40;;;4.60;96.20;;;;;;5009931;28;20041;-71
2022/04/17 01:46:38;;;;;;;0.30;0.30;;;4.60;96.50;;;;;;5009986;28;20505;-71
2022/04/17 01:49:04;;;;;;;0.30;0.30;;;4.50;96.40;;;;;;4993548;28;20079;-71
2022/04/17 01:51:35;;;;;;;0.60;0.60;;;4.50;96.30;;;;;;4992809;28;20030;-70
2022/04/17 01:54:02;;;;;;;5.07;1.42;;;4.40;96.20;;;;;;4993224;28;20074;-71
2022/04/17 01:56:28;;;;;;;0.90;0.90;;;4.40;96.40;;;;;;5014500;28;20051;-71
2022/04/17 01:58:54;;;;;;;0.85;0.85;;;4.40;96.20;;;;;;5012761;28;20037;-71
2022/04/17 02:01:19;;;;;;;1.00;0.98;;;4.40;96.90;;;;;;5010109;28;20377;-71
2022/04/17 02:03:45;;;;;;;0.82;0.75;;;4.40;97.00;;;;;;5013991;28;20084;-71
2022/04/17 02:06:11;;;;;;;0.40;0.40;;;4.40;97.50;;;;;;4996555;28;20602;-71
2022/04/17 02:08:36;;;;;;;0.55;0.55;;;4.30;97.80;;;;;;4996472;28;20405;-71
2022/04/17 02:11:02;;;;;;;1.33;1.23;;;4.20;98.30;;;;;;5013670;28;20041;-71
2022/04/17 02:13:29;;;;;;;0.30;0.30;;;4.10;98.40;;;;;;4995986;28;20207;-71
2022/04/17 02:15:55;;;;;;;2.38;0.93;;;4.10;98.40;;;;;;4996349;28;20173;-71
2022/04/17 02:18:21;;;;;;;0.40;0.40;;;4.10;98.70;;;;;;4997717;28;20416;-71
2022/04/17 02:20:48;;;;;;;0.88;0.88;;;4.10;98.90;;;;;;5012805;28;20074;-70
2022/04/17 02:23:14;;;;;;;0.30;0.30;;;4.00;99.00;;;;;;5012177;28;20465;-71
2022/04/17 02:25:40;;;;;;;0.57;0.57;;;3.90;99.00;;;;;;5013418;28;20444;-71
2022/04/17 02:28:06;;;;;;;0.30;0.30;;;3.80;99.30;;;;;;5012711;28;20792;-71
2022/04/17 02:30:31;;;;;;;0.60;0.60;;;3.70;99.90;;;;;;5011747;28;20038;-71
2022/04/17 02:32:57;;;;;;;0.65;0.65;;;3.60;99.80;;;;;;5012199;28;20044;-71
2022/04/17 02:35:23;;;;;;;0.40;0.40;;;3.40;99.90;;;;;;5012837;28;20497;-71
2022/04/17 02:37:48;;;;;;;0.40;0.40;;;3.40;99.90;;;;;;5011801;28;20133;-71
2022/04/17 02:40:14;;;;;;;0.50;0.50;;;3.30;99.90;;;;;;5012060;28;20049;-71
2022/04/17 02:42:39;;;;;;;0.40;0.40;;;3.10;99.90;;;;;;5012508;28;20516;-71
2022/04/17 02:45:05;;;;;;;0.30;0.30;;;3.10;99.90;;;;;;5010336;28;20092;-71
2022/04/17 02:47:43;;;;;;;0.35;0.35;;;3.00;99.90;;;;;;5026692;28;20788;-72
2022/04/17 02:50:10;;;;;;;0.30;0.30;;;3.00;99.90;;;;;;4989434;28;20045;-71
2022/04/17 02:52:36;;;;;;;0.50;0.50;;;3.00;99.90;;;;;;5006794;28;20083;-71
2022/04/17 02:55:02;;;;;;;0.70;0.70;;;3.00;99.90;;;;;;5010430;28;20033;-72
2022/04/17 02:57:28;;;;;;;0.52;0.52;;;3.00;99.90;;;;;;5011891;28;20477;-71
2022/04/17 02:59:53;;;;;;;0.45;0.45;;;3.00;99.90;;;;;;5000084;28;20045;-72
2022/04/17 03:07:48;;;;;;;0.40;0.40;;;2.90;99.90;;;;;;5011838;28;20041;-71
2022/04/17 03:10:13;;;;;;;0.50;0.50;;;2.90;99.90;;;;;;5012127;28;20040;-71
2022/04/17 03:12:39;;;;;;;0.40;0.40;;;2.80;99.90;;;;;;5012118;28;20492;-71
2022/04/17 03:15:06;;;;;;;0.43;0.43;;;2.70;99.90;;;;;;5012178;28;20773;-71
2022/04/17 03:17:31;;;;;;;0.40;0.40;;;2.60;99.90;;;;;;4995473;28;20125;-71
2022/04/17 03:19:57;;;;;;;0.40;0.40;;;2.60;99.90;;;;;;4995920;28;20565;-71
2022/04/17 03:22:24;;;;;;;0.52;0.52;;;2.60;99.90;;;;;;4994887;28;20053;-71
2022/04/17 03:24:50;;;;;;;0.30;0.30;;;2.50;99.90;;;;;;4994309;28;20132;-71
2022/04/17 03:27:16;;;;;;;1.13;1.13;;;2.40;99.90;;;;;;4994389;28;20144;-71
2022/04/17 03:29:41;;;;;;;0.40;0.40;;;2.40;99.90;;;;;;5001626;28;20053;-71
2022/04/17 03:32:07;;;;;;;0.40;0.40;;;2.40;99.90;;;;;;5028826;28;20045;-71
2022/04/17 03:34:33;;;;;;;0.40;0.40;;;2.40;99.90;;;;;;5011070;28;20128;-71
2022/04/17 03:36:58;;;;;;;0.40;0.40;;;2.30;99.90;;;;;;4993434;28;20453;-71
2022/04/17 03:39:25;;;;;;;0.40;0.40;;;2.30;99.90;;;;;;5011404;28;20066;-71
2022/04/17 03:41:54;;;;;;;0.40;0.40;;;2.20;99.90;;;;;;4994482;28;20037;-71
2022/04/17 03:44:20;;;;;;;0.63;0.63;;;2.20;99.90;;;;;;4992791;28;20058;-72
2022/04/17 03:46:47;;;;;;;0.50;0.50;;;2.20;99.90;;;;;;5011641;28;20559;-72
2022/04/17 03:49:14;;;;;;;0.60;0.60;;;2.20;99.90;;;;;;5010671;28;20100;-71
2022/04/17 03:51:39;;;;;;;0.40;0.40;;;2.10;99.90;;;;;;4994049;28;20041;-71
2022/04/17 03:54:05;;;;;;;0.40;0.40;;;2.10;99.90;;;;;;4987304;28;20456;-72
2022/04/17 03:56:31;;;;;;;0.40;0.40;;;2.00;99.90;;;;;;4991201;28;20068;-71
2022/04/17 03:58:56;;;;;;;0.40;0.40;;;2.00;99.90;;;;;;5002824;28;20045;-72
2022/04/17 04:01:22;;;;;;;0.43;0.43;;;2.00;99.90;;;;;;4994436;28;20049;-71
2022/04/17 04:03:48;;;;;;;0.70;0.70;;;2.00;99.90;;;;;;5010519;28;20553;-72
2022/04/17 04:06:14;;;;;;;0.70;0.70;;;1.90;99.90;;;;;;4990385;28;20022;-72
2022/04/17 04:08:39;;;;;;;0.50;0.50;;;1.90;99.90;;;;;;5011031;28;20386;-71
2022/04/17 04:11:05;;;;;;;0.40;0.40;;;1.90;99.90;;;;;;4994244;28;20139;-71
2022/04/17 04:13:32;;;;;;;0.40;0.40;;;1.90;99.90;;;;;;4993385;28;20052;-71
2022/04/17 04:15:58;;;;;;;0.80;0.80;;;1.80;99.90;;;;;;5009178;28;20049;-72
2022/04/17 04:18:24;;;;;;;0.50;0.50;;;1.80;99.90;;;;;;5009142;28;20038;-71
2022/04/17 04:20:49;;;;;;;2.65;1.13;;;1.80;99.90;;;;;;4992544;28;20162;-72
2022/04/17 04:23:16;;;;;;;1.38;1.27;;;1.90;99.90;;;;;;5009534;28;20481;-71
2022/04/17 04:25:41;;;;;;;4.55;1.95;;;2.00;99.90;;;;;;5009166;28;20053;-72
2022/04/17 04:30:51;;;;;;;0.73;0.73;;;2.30;99.90;;;;;;5014455;28;20412;-71
2022/04/17 04:33:17;;;;;;;0.55;0.55;;;2.20;99.90;;;;;;4993584;28;20041;-72
2022/04/17 04:35:43;;;;;;;0.50;0.50;;;2.20;99.90;;;;;;4993829;28;20525;-71
2022/04/17 04:38:09;;;;;;;0.85;0.85;;;2.20;99.90;;;;;;5023195;28;20052;-71
2022/04/17 04:40:34;;;;;;;2.38;1.75;;;2.20;99.90;;;;;;4993625;28;20409;-71
2022/04/17 04:43:01;;;;;;;0.50;0.50;;;2.20;99.90;;;;;;5010263;28;20033;-71
2022/04/17 04:48:13;;;;;;;0.60;0.60;;;2.30;99.90;;;;;;4999238;28;20049;-71
2022/04/17 04:50:38;;;;;;;0.40;0.40;;;2.30;99.90;;;;;;5009927;28;20049;-71
2022/04/17 04:53:04;;;;;;;1.13;1.13;;;2.30;99.90;;;;;;5009706;28;20045;-71
2022/04/17 04:55:30;;;;;;;0.50;0.50;;;2.40;99.90;;;;;;5026790;28;20076;-72
2022/04/17 04:57:55;;;;;;;0.50;0.50;;;2.40;99.90;;;;;;4990615;28;20045;-71
2022/04/17 05:00:21;;;;;;;0.40;0.40;;;2.40;99.90;;;;;;5002967;28;20573;-71
2022/04/17 05:02:47;;;;;;;0.40;0.40;;;2.40;99.90;;;;;;5008189;28;20113;-71
2022/04/17 05:05:13;;;;;;;0.45;0.45;;;2.50;99.90;;;;;;5006746;28;20041;-72
2022/04/17 05:07:39;;;;;;;0.40;0.40;;;2.50;99.90;;;;;;4998857;28;20500;-71
2022/04/17 05:10:06;;;;;;;1.52;1.50;;;2.60;99.90;;;;;;5009054;28;20458;-71
2022/04/17 05:12:32;;;;;;;0.40;0.40;;;2.80;99.90;;;;;;4993250;28;20787;-71
2022/04/17 05:14:58;;;;;;;0.75;0.75;;;3.30;99.90;;;;;;5009524;28;20516;-71
2022/04/17 05:17:24;;;;;;;0.40;0.40;;;3.30;99.90;;;;;;5009595;28;20041;-72
2022/04/17 05:19:50;;;;;;;0.38;0.38;;;3.40;99.90;;;;;;4986976;28;20038;-72
2022/04/17 05:22:16;;;;;;;0.40;0.40;;;3.60;99.90;;;;;;4992648;28;20056;-71
2022/04/17 05:24:45;;;;;;;0.40;0.40;;;3.70;99.90;;;;;;5009498;28;20049;-71
2022/04/17 05:27:12;;;;;;;0.68;0.68;;;3.70;99.90;;;;;;4992183;28;20056;-71
2022/04/17 05:29:39;;;;;;;0.35;0.35;;;3.80;99.90;;;;;;4995511;28;20124;-71
2022/04/17 05:32:05;;;;;;;10.45;1.70;;;4.30;99.90;;;;;;5013473;28;20050;-71
2022/04/17 05:34:31;;;;;;;1.95;1.85;;;5.00;99.90;;;;;;5013121;28;20382;-71
2022/04/17 05:36:56;;;;;;;0.90;0.90;;;5.70;99.90;;;;;;5013874;28;20044;-71
2022/04/17 05:39:22;;;;;;;0.90;0.90;;;6.00;99.90;;;;;;5010628;28;20037;-72
2022/04/17 05:41:48;;;;;;;0.40;0.40;;;6.20;99.90;;;;;;5012921;28;20088;-71
2022/04/17 05:44:14;;;;;;;1.45;1.25;;;6.30;99.90;;;;;;5013610;28;20512;-71
2022/04/17 05:46:41;;;;;;;0.55;0.55;;;6.30;99.90;;;;;;5013378;28;20033;-71
2022/04/17 05:49:07;;;;;;;1.67;1.58;;;6.20;99.90;;;;;;5004848;28;20136;-71
2022/04/17 05:51:34;;;;;;;3.88;3.47;;;6.00;99.90;;;;;;4990227;28;20504;-71
2022/04/17 05:54:05;;;;;;;2.00;1.50;;;5.90;99.90;;;;;;5011881;28;20485;-71
2022/04/17 05:56:31;;;;;;;4.97;2.72;;;5.90;99.90;;;;;;4996696;28;20037;-71
2022/04/17 05:58:57;;;;;;;0.85;0.85;;;5.80;99.90;;;;;;4996252;28;20511;-70
2022/04/17 06:01:22;;;;;;;1.02;1.00;;;5.80;99.90;;;;;;5012001;28;20041;-71
2022/04/17 06:03:49;;;;;;;1.90;1.73;;;5.90;99.90;;;;;;5013034;28;20044;-70
2022/04/17 06:06:16;;;;;;;0.60;0.60;;;6.00;99.90;;;;;;5011629;28;20130;-70
2022/04/17 06:08:42;;;;;;;0.63;0.63;;;6.20;99.90;;;;;;5013491;28;20440;-71
2022/04/17 06:11:07;;;;;;;0.40;0.40;;;6.60;99.90;;;;;;5012460;28;20095;-71
2022/04/17 06:13:33;;;;;;;5.72;2.58;;;7.10;99.90;;;;;;4994042;28;20124;-71
2022/04/17 06:15:58;;;;;;;2.00;1.80;;;7.60;99.90;;;;;;5028272;28;20088;-71
2022/04/17 06:18:24;;;;;;;3.33;2.00;;;8.40;99.90;;;;;;5008500;28;20052;-71
2022/04/17 06:20:49;;;;;;;3.13;2.83;;;8.80;99.90;;;;;;4994828;28;20107;-71
2022/04/17 06:23:15;;;;;;;3.75;2.63;;;9.20;99.90;;;;;;5011394;28;20033;-71
2022/04/17 06:25:41;;;;;;;1.38;1.27;;;9.40;99.90;;;;;;5012475;28;20110;-71
2022/04/17 06:28:06;;;;;;;3.28;2.33;;;9.60;99.90;;;;;;5010975;28;20033;-71
2022/04/17 06:30:32;;;;;;;2.33;2.08;;;9.50;98.00;;;;;;5008959;28;20037;-71
2022/04/17 06:32:58;;;;;;;0.68;0.68;;;9.50;98.70;;;;;;4995338;28;20045;-71
2022/04/17 06:35:24;;;;;;;6.10;3.97;;;9.60;98.50;;;;;;5013084;28;20049;-71
2022/04/17 06:37:51;;;;;;;2.03;1.88;;;9.70;98.30;;;;;;4993383;28;20046;-71
2022/04/17 06:40:33;;;;;;;0.90;0.90;;;9.80;97.70;;;;;;4985057;28;20073;-71
2022/04/17 06:43:05;;;;;;;3.05;1.58;;;10.00;97.30;;;;;;4996090;28;20447;-71
2022/04/17 06:45:33;;;;;;;5.60;2.42;;;10.50;96.70;;;;;;5011131;28;20088;-71
2022/04/17 06:48:14;;;;;;;1.65;1.55;;;11.10;97.20;;;;;;4995638;28;20473;-71
2022/04/17 06:50:40;;;;;;;0.70;0.70;;;11.90;95.10;;;;;;5011392;28;20079;-71
2022/04/17 06:53:06;;;;;;;9.13;8.27;;;11.90;93.00;;;;;;5012450;28;20513;-72
2022/04/17 06:55:32;;;;;;;0.60;0.60;;;11.40;92.90;;;;;;4994875;28;20030;-73
2022/04/17 06:57:57;;;;;;;2.00;1.73;;;10.80;93.20;;;;;;5012043;28;20037;-71
2022/04/17 07:00:23;;;;;;;1.17;1.13;;;10.30;93.10;;;;;;5009483;28;20050;-72
2022/04/17 07:02:49;;;;;;;2.38;1.60;;;10.50;94.10;;;;;;5010347;28;20041;-71
2022/04/17 07:05:15;;;;;;;1.52;1.20;;;10.30;93.80;;;;;;5025800;28;20069;-72
2022/04/17 07:07:41;;;;;;;2.20;1.77;;;10.00;94.50;;;;;;4994463;28;20135;-71
2022/04/17 07:10:08;;;;;;;1.60;1.50;;;9.80;94.10;;;;;;4997502;28;20044;-72
2022/04/17 07:12:35;;;;;;;1.67;1.55;;;9.60;93.80;;;;;;4990986;28;20033;-71
2022/04/17 07:15:02;;;;;;;2.10;1.92;;;9.50;94.90;;;;;;5010691;28;20041;-71
2022/04/17 07:17:35;;;;;;;1.83;1.65;;;9.50;94.70;;;;;;4991483;28;20124;-71
2022/04/17 07:20:02;;;;;;;3.83;1.23;;;9.50;94.60;;;;;;4999312;28;20053;-71
2022/04/17 07:22:28;;;;;;;4.97;2.88;;;9.40;94.90;;;;;;4994733;28;20041;-72
2022/04/17 07:24:54;;;;;;;3.92;3.22;;;9.40;95.60;;;;;;5008467;28;20064;-71
2022/04/17 07:27:20;;;;;;;2.45;2.13;;;9.50;95.20;;;;;;5009907;28;20056;-72
2022/04/17 07:29:47;;;;;;;3.78;2.47;;;9.60;95.40;;;;;;5009112;28;20044;-71
2022/04/17 07:32:12;;;;;;;2.88;1.92;;;9.60;95.80;;;;;;4988709;28;20029;-71
2022/04/17 07:34:38;;;;;;;3.20;1.95;;;9.70;95.60;;;;;;5012591;28;20378;-71
2022/04/17 07:37:04;;;;;;;4.43;3.25;;;9.80;95.70;;;;;;4992664;28;20065;-71
2022/04/17 07:39:29;;;;;;;6.50;2.55;;;9.90;95.60;;;;;;5007718;28;20048;-72
2022/04/17 07:41:55;;;;;;;5.10;4.05;;;10.00;94.80;;;;;;5007353;28;20053;-72
2022/04/17 07:44:23;;;;;;;3.38;2.38;;;10.10;94.00;;;;;;5005394;28;20045;-71
2022/04/17 07:46:49;;;;;;;5.53;2.28;;;10.20;94.60;;;;;;5007413;28;20121;-72
2022/04/17 07:49:16;;;;;;;2.13;1.80;;;10.20;94.40;;;;;;5024747;28;20564;-71
2022/04/17 07:51:41;;;;;;;6.25;2.00;;;10.30;93.80;;;;;;5009043;28;20042;-72
2022/04/17 07:54:07;;;;;;;1.63;1.52;;;10.20;94.40;;;;;;4987954;28;20379;-73
2022/04/17 07:56:33;;;;;;;3.03;2.15;;;10.30;94.50;;;;;;4987952;28;20416;-72
2022/04/17 07:58:59;;;;;;;3.53;1.83;;;10.30;93.50;;;;;;4990535;28;20156;-71
2022/04/17 08:01:24;;;;;;;2.63;1.83;;;10.40;93.40;;;;;;5001350;28;20118;-71
2022/04/17 08:03:50;;;;;;;2.22;1.05;;;10.40;93.90;;;;;;4986648;28;20082;-71
2022/04/17 08:06:20;;;;;;;2.17;1.75;;;10.50;94.20;;;;;;4999524;28;20120;-71
2022/04/17 08:08:46;;;;;;;1.70;1.60;;;10.60;92.40;;;;;;5002842;28;20049;-71
2022/04/17 08:11:12;;;;;;;1.45;1.35;;;10.70;92.60;;;;;;5005959;28;20042;-72
2022/04/17 08:13:39;;;;;;;1.13;1.02;;;10.70;92.20;;;;;;5007872;28;20061;-71
2022/04/17 08:16:06;;;;;;;1.88;1.77;;;10.70;91.70;;;;;;5003950;28;20087;-72
2022/04/17 08:18:33;;;;;;;3.42;2.10;;;10.90;92.60;;;;;;4990257;28;20040;-71
2022/04/17 08:20:59;;;;;;;1.30;1.17;;;11.00;91.70;;;;;;4988854;28;20041;-71
2022/04/17 08:23:24;;;;;;;5.53;3.25;;;11.10;91.50;;;;;;5020040;28;20060;-71
2022/04/17 08:25:50;;;;;;;1.92;1.38;;;11.10;91.40;;;;;;4998879;28;20045;-71
2022/04/17 08:28:15;;;;;;;0.95;0.93;;;11.20;90.10;;;;;;5001449;28;20056;-71
2022/04/17 08:30:41;;;;;;;0.20;0.20;;;11.30;90.10;;;;;;4988817;28;20056;-71
2022/04/17 08:33:08;;;;;;;1.10;1.02;;;11.40;90.00;;;;;;4985869;28;20471;-71
2022/04/17 08:35:34;;;;;;;1.35;1.25;;;11.40;89.80;;;;;;4991512;28;20053;-71
2022/04/17 08:38:02;;;;;;;2.47;2.13;;;11.60;87.90;;;;;;4991189;28;20466;-71
2022/04/17 08:40:28;;;;;;;4.45;2.33;;;11.70;87.70;;;;;;5001820;28;20095;-71
2022/04/17 08:42:54;;;;;;;3.75;1.00;;;12.30;82.70;;;;;;4998753;28;20046;-71
2022/04/17 08:45:20;;;;;;;1.38;1.15;;;13.30;82.70;;;;;;5008993;28;20519;-72
2022/04/17 08:47:46;;;;;;;2.28;2.08;;;14.00;76.50;;;;;;5008620;28;20087;-71
2022/04/17 08:50:15;;;;;;;1.35;1.25;;;14.30;70.00;;;;;;5009762;28;20759;-71
2022/04/17 08:52:44;;;;;;;3.72;3.40;;;14.40;69.80;;;;;;4987522;28;20073;-72
2022/04/17 08:55:10;;;;;;;6.95;1.27;;;14.80;69.20;;;;;;4987244;28;20128;-71
2022/04/17 08:57:35;;;;;;;0.30;0.30;;;15.50;67.70;;;;;;4989084;28;20049;-72
2022/04/17 09:00:05;;;;;;;3.47;1.17;;;16.10;66.00;;;;;;5006960;28;20048;-71
2022/04/17 09:02:30;;;;;;;4.22;1.42;;;16.70;61.70;;;;;;4992938;28;20119;-71
2022/04/17 09:04:56;;;;;;;5.28;2.45;;;17.10;58.50;;;;;;4991249;28;20049;-71
2022/04/17 09:07:22;;;;;;;1.38;1.27;;;17.20;61.00;;;;;;5004119;28;20034;-72
2022/04/17 09:09:53;;;;;;;2.08;1.90;;;17.30;60.00;;;;;;4990755;28;20604;-71
2022/04/17 09:12:19;;;;;;;1.17;1.02;;;17.70;59.00;;;;;;5026015;28;20042;-71
2022/04/17 09:14:45;;;;;;;0.40;0.40;;;18.00;59.20;;;;;;5009751;28;20046;-71
2022/04/17 09:17:11;;;;;;;4.38;2.60;;;18.40;59.60;;;;;;5009316;28;20160;-72
2022/04/17 09:19:37;;;;;;;0.63;0.63;;;18.50;52.80;;;;;;4993302;28;20125;-72
2022/04/17 09:22:05;;;;;;;0.60;0.60;;;18.60;56.60;;;;;;4993265;28;20044;-72
2022/04/17 09:24:35;;;;;;;1.17;1.10;;;18.80;53.30;;;;;;5010652;28;20053;-72
2022/04/17 09:27:01;;;;;;;2.22;1.73;;;19.00;52.10;;;;;;5002244;28;20041;-72
2022/04/17 09:29:35;;;;;;;0.63;0.57;;;19.10;55.50;;;;;;4992241;28;20047;-72
2022/04/17 09:32:03;;;;;;;7.43;1.30;;;19.20;52.20;;;;;;5006389;28;20046;-72
2022/04/17 09:34:43;;;;;;;2.63;1.10;;;19.20;54.70;;;;;;4997884;28;20049;-72
2022/04/17 09:37:29;;;;;;;0.20;0.20;;;19.20;53.80;;;;;;5013050;28;20077;-72
2022/04/17 09:40:07;;;;;;;0.88;0.85;;;19.20;54.00;;;;;;4997495;28;20123;-73
2022/04/17 09:42:32;;;;;;;0.65;0.65;;;19.40;53.80;;;;;;5007768;28;20060;-72
2022/04/17 09:44:58;;;;;;;1.88;1.65;;;19.30;52.80;;;;;;4992336;28;20041;-73
2022/04/17 09:47:26;;;;;;;0.98;0.98;;;19.50;52.20;;;;;;4990301;28;20045;-72
2022/04/17 09:50:03;;;;;;;1.98;1.83;;;19.60;51.40;;;;;;5003696;28;20056;-73
2022/04/17 09:52:46;;;;;;;0.77;0.77;;;19.50;49.90;;;;;;4991996;28;20037;-72
2022/04/17 09:55:12;;;;;;;;;;;19.50;49.10;;;;;;4996817;28;20042;-72
2022/04/17 09:57:40;;;;;;;1.50;1.17;;;19.40;51.60;;;;;;4990415;28;19925;-73
2022/04/17 10:00:17;;;;;;;0.65;0.65;;;19.30;52.00;;;;;;5007066;28;20034;-73
2022/04/17 10:02:44;;;;;;;0.57;0.57;;;19.10;49.60;;;;;;4990139;28;20449;-73
2022/04/17 10:05:13;;;;;;;8.30;1.05;;;19.10;52.40;;;;;;4990318;28;20057;-72
2022/04/17 10:07:41;;;;;;;0.80;0.68;;;18.90;50.20;;;;;;4989841;28;20415;-72
2022/04/17 10:10:08;;;;;;;0.88;0.85;;;18.80;48.80;;;;;;5008465;28;20092;-72
2022/04/17 10:12:34;;;;;;;0.32;0.32;;;18.70;47.90;;;;;;4991791;28;20526;-72
2022/04/17 10:15:06;;;;;;;0.43;0.43;;;18.70;50.10;;;;;;5006833;28;20084;-72
2022/04/17 10:17:34;;;;;;;1.38;1.08;;;18.70;50.00;;;;;;4984906;28;20419;-73
2022/04/17 10:20:08;;;;;;;0.45;0.45;;;18.70;51.50;;;;;;5014003;28;20076;-73
2022/04/17 10:22:38;;;;;;;1.92;1.75;;;18.70;50.70;;;;;;5012838;28;20033;-72
2022/04/17 10:25:06;;;;;;;0.40;0.40;;;18.70;50.40;;;;;;5009852;28;20057;-73
2022/04/17 10:27:51;;;;;;;0.30;0.30;;;18.70;49.30;;;;;;4995413;28;20076;-72
2022/04/17 10:30:21;;;;;;;0.90;0.82;;;18.70;49.20;;;;;;5012736;28;20044;-72
2022/04/17 10:32:49;;;;;;;0.63;0.63;;;18.70;50.40;;;;;;5030066;28;20371;-72
2022/04/17 10:35:35;;;;;;;0.60;0.57;;;18.60;50.40;;;;;;4996077;28;20045;-72
2022/04/17 10:38:38;;;;;;;0.63;0.63;;;18.50;50.00;;;;;;5010532;28;20551;-72
2022/04/17 10:41:07;;;;;;;0.50;0.50;;;18.40;48.80;;;;;;5035516;23;20109;-69
2022/04/17 10:43:56;;;;;;;0.88;0.88;;;18.50;50.20;;;;;;4964064;28;20644;-69
2022/04/17 10:46:22;;;;;;;0.80;0.80;;;18.60;49.30;;;;;;4990024;28;20042;-70
2022/04/17 10:48:49;;;;;;;0.65;0.65;;;18.70;48.70;;;;;;4974358;28;20057;-70
2022/04/17 10:51:31;;;;;;;2.45;2.25;;;18.60;49.70;;;;;;4964965;28;20043;-70
2022/04/17 10:54:07;;;;;;;1.55;1.35;;;18.60;49.70;;;;;;4964700;28;20045;-70
2022/04/17 10:56:41;;;;;;;0.55;0.55;;;18.50;48.30;;;;;;4973454;28;20065;-70
2022/04/17 10:59:19;;;;;;;1.25;1.15;;;18.40;47.10;;;;;;4969700;28;20046;-69
2022/04/17 11:01:45;;;;;;;0.52;0.52;;;18.20;47.40;;;;;;4969571;28;20137;-70
2022/04/17 11:04:25;;;;;;;3.40;1.20;;;18.20;48.50;;;;;;4956627;28;20185;-70
2022/04/17 11:07:11;;;;;;;0.47;0.47;;;18.20;45.40;;;;;;4955731;28;20073;-70
2022/04/17 11:09:42;;;;;;;1.48;1.15;;;18.30;47.60;;;;;;4972573;28;20495;-70
2022/04/17 11:12:11;;;;;;;0.40;0.40;;;18.40;47.20;;;;;;4970122;28;20050;-70
2022/04/17 11:14:39;;;;;;;1.55;1.05;;;18.40;46.90;;;;;;4957297;28;20459;-69
2022/04/17 11:17:08;;;;;;;0.47;0.47;;;18.40;44.90;;;;;;4970723;28;20112;-69
2022/04/17 11:19:39;;;;;;;5.20;1.73;;;18.50;49.10;;;;;;4975629;28;20045;-70
2022/04/17 11:22:07;;;;;;;0.35;0.35;;;18.70;46.70;;;;;;4952527;28;20062;-69
2022/04/17 11:24:54;;;;;;;0.77;0.77;;;18.80;47.50;;;;;;4961251;28;20078;-69
2022/04/17 11:27:42;;;;;;;1.80;1.25;;;18.80;47.00;;;;;;4971341;28;20133;-69
2022/04/17 11:30:14;;;;;;;1.30;1.00;;;18.90;46.90;;;;;;4961047;28;20220;-70
2022/04/17 11:32:39;;;;;;;1.65;1.08;;;18.90;47.20;;;;;;4983434;28;20039;-69
2022/04/17 11:35:07;;;;;;;3.40;0.95;;;19.00;46.10;;;;;;4951457;28;20046;-70
2022/04/17 11:37:33;;;;;;;1.55;1.35;;;19.00;46.20;;;;;;4972674;28;20048;-69
2022/04/17 11:40:11;;;;;;;5.47;1.30;;;19.10;45.90;;;;;;4970304;28;20080;-69
2022/04/17 11:42:42;;;;;;;1.77;1.20;;;19.20;46.00;;;;;;4956798;28;20442;-70
2022/04/17 11:45:08;;;;;;;1.42;1.25;;;19.00;44.70;;;;;;4956364;28;20077;-69
2022/04/17 11:47:43;;;;;;;0.55;0.55;;;18.90;44.50;;;;;;4966988;28;20101;-70
2022/04/17 11:50:10;;;;;;;1.70;1.30;;;18.80;46.10;;;;;;4960347;28;20129;-70
2022/04/17 11:52:37;;;;;;;3.22;1.95;;;18.90;46.30;;;;;;4968409;28;20507;-70
2022/04/17 11:55:04;;;;;;;0.63;0.63;;;18.90;46.00;;;;;;4963588;28;20069;-69
2022/04/17 11:57:30;;;;;;;0.90;0.88;;;18.90;45.40;;;;;;4971001;28;20046;-70
2022/04/17 11:59:57;;;;;;;0.90;0.90;;;19.00;44.30;;;;;;4971894;28;20045;-69
2022/04/17 12:02:25;;;;;;;0.57;0.50;;;18.90;43.80;;;;;;4970766;28;20038;-70
2022/04/17 12:04:55;;;;;;;1.02;1.02;;;19.00;45.50;;;;;;4942749;28;20046;-69
2022/04/17 12:07:25;;;;;;;1.25;1.10;;;19.20;44.60;;;;;;4965875;28;20372;-69
2022/04/17 12:10:05;;;;;;;1.38;1.02;;;19.40;45.10;;;;;;4969032;28;20042;-69
2022/04/17 12:12:36;;;;;;;1.77;1.35;;;19.50;44.70;;;;;;4966406;28;20045;-70
2022/04/17 12:15:03;;;;;;;1.33;0.95;;;19.40;43.20;;;;;;4958430;28;20048;-70
2022/04/17 12:17:33;;;;;;;2.25;0.95;;;19.20;42.40;;;;;;4968426;28;20181;-70
2022/04/17 12:20:00;;;;;;;3.50;1.20;;;19.10;42.40;;;;;;4986383;28;20074;-70
2022/04/17 12:22:27;;;;;;;1.23;1.20;;;19.00;43.20;;;;;;4970940;28;20125;-69
2022/04/17 12:24:53;;;;;;;0.93;0.93;;;19.00;43.50;;;;;;4989425;28;20034;-70
2022/04/17 12:27:20;;;;;;;2.55;1.85;;;19.10;45.20;;;;;;4972760;28;20376;-70
2022/04/17 12:29:47;;;;;;;2.10;1.40;;;19.20;44.50;;;;;;4972287;28;20042;-70
2022/04/17 12:32:19;;;;;;;0.80;0.65;;;19.30;41.40;;;;;;4952923;28;20035;-70
2022/04/17 12:34:45;;;;;;;2.70;0.50;;;19.30;43.90;;;;;;4952788;28;20038;-70
2022/04/17 12:37:25;;;;;;;2.78;1.13;;;19.40;44.10;;;;;;4952721;28;20050;-69
2022/04/17 12:39:50;;;;;;;1.70;0.98;;;19.50;42.70;;;;;;4966040;28;20514;-70
2022/04/17 12:42:18;;;;;;;0.85;0.77;;;19.60;45.90;;;;;;4972103;28;20062;-70
2022/04/17 12:44:47;;;;;;;1.13;0.85;;;19.70;43.30;;;;;;4972510;28;20529;-70
2022/04/17 12:47:14;;;;;;;1.05;1.00;;;19.60;43.70;;;;;;4971569;28;20149;-69
2022/04/17 12:49:40;;;;;;;0.50;0.50;;;19.50;44.70;;;;;;4972312;28;20413;-70
2022/04/17 12:52:06;;;;;;;1.17;0.70;;;19.60;44.40;;;;;;4967482;28;20042;-69
2022/04/17 12:54:34;;;;;;;0.40;0.40;;;19.60;45.30;;;;;;4936740;28;20047;-70
2022/04/17 12:57:08;;;;;;;1.50;1.40;;;19.70;45.60;;;;;;4953311;28;20042;-70
2022/04/17 12:59:52;;;;;;;2.90;1.75;;;19.70;44.00;;;;;;4953309;28;20043;-69
2022/04/17 13:02:19;;;;;;;5.80;2.78;;;19.70;45.20;;;;;;4952561;28;20054;-69
2022/04/17 13:04:46;;;;;;;0.40;0.40;;;19.70;44.60;;;;;;4961892;28;20054;-69
2022/04/17 13:07:16;;;;;;;4.00;2.03;;;19.70;45.30;;;;;;4980903;28;20124;-70
2022/04/17 13:09:55;;;;;;;5.03;2.20;;;19.70;45.70;;;;;;4967532;28;20042;-70